createdAt,value
2018-02-14T00:01:57.268Z,17.67
2018-02-14T00:04:24.726Z,19.80
2018-02-14T00:06:52.182Z,20.53
2018-02-14T00:09:19.647Z,20.23
2018-02-14T00:11:47.090Z,20.70
2018-02-14T00:14:14.561Z,21.07
2018-02-14T00:16:42.004Z,20.23
2018-02-14T00:19:09.469Z,19.73
2018-02-14T00:21:36.906Z,19.03
2018-02-14T00:24:05.135Z,20.47
2018-02-14T00:26:32.609Z,18.30
2018-02-14T00:29:00.071Z,18.87
2018-02-14T00:31:27.519Z,18.40
2018-02-14T00:33:54.991Z,18.70
2018-02-14T00:36:22.437Z,18.87
2018-02-14T00:38:49.899Z,17.53
2018-02-14T00:41:17.363Z,17.90
2018-02-14T00:43:44.814Z,16.87
2018-02-14T00:46:12.278Z,16.53
2018-02-14T00:48:39.746Z,17.57
2018-02-14T00:51:07.217Z,18.20
2018-02-14T00:53:35.423Z,16.83
2018-02-14T00:56:02.890Z,16.70
2018-02-14T00:58:30.339Z,17.07
2018-02-14T01:00:57.808Z,17.23
2018-02-14T01:03:25.271Z,17.03
2018-02-14T01:05:52.714Z,16.40
2018-02-14T01:08:20.187Z,14.97
2018-02-14T01:10:47.631Z,16.07
2018-02-14T01:13:15.103Z,16.27
2018-02-14T01:15:42.554Z,15.03
2018-02-14T01:18:09.995Z,17.40
2018-02-14T01:20:43.136Z,16.03
2018-02-14T01:23:10.578Z,17.43
2018-02-14T01:25:38.048Z,15.57
2018-02-14T01:28:05.512Z,15.73
2018-02-14T01:30:32.974Z,15.77
2018-02-14T01:33:12.736Z,16.83
2018-02-14T01:35:40.953Z,16.20
2018-02-14T01:38:08.410Z,15.77
2018-02-14T01:40:35.861Z,16.27
2018-02-14T01:43:03.328Z,15.77
2018-02-14T01:45:30.786Z,16.03
2018-02-14T01:47:58.251Z,16.10
2018-02-14T01:50:37.583Z,16.03
2018-02-14T01:53:05.047Z,16.13
2018-02-14T01:55:32.484Z,15.70
2018-02-14T01:58:00.763Z,15.20
2018-02-14T02:00:28.249Z,15.53
2018-02-14T02:02:55.747Z,15.57
2018-02-14T02:05:23.963Z,16.07
2018-02-14T02:07:51.432Z,15.60
2018-02-14T02:10:18.881Z,15.47
2018-02-14T02:12:46.336Z,16.10
2018-02-14T02:15:13.801Z,15.57
2018-02-14T02:17:41.263Z,15.80
2018-02-14T02:20:08.731Z,17.07
2018-02-14T02:22:36.199Z,15.50
2018-02-14T02:25:03.639Z,14.40
2018-02-14T02:27:31.089Z,15.53
2018-02-14T02:29:58.547Z,15.60
2018-02-14T02:32:26.005Z,14.47
2018-02-14T02:34:53.463Z,15.87
2018-02-14T02:37:20.903Z,15.20
2018-02-14T02:40:00.285Z,14.47
2018-02-14T02:42:27.718Z,15.77
2018-02-14T02:44:55.186Z,15.33
2018-02-14T02:47:22.627Z,15.00
2018-02-14T02:49:50.111Z,15.00
2018-02-14T02:52:17.578Z,15.13
2018-02-14T02:54:45.026Z,15.33
2018-02-14T02:57:12.475Z,15.27
2018-02-14T02:59:39.941Z,14.80
2018-02-14T03:02:07.408Z,14.80
2018-02-14T03:04:34.886Z,14.37
2018-02-14T03:07:02.383Z,14.23
2018-02-14T03:09:29.849Z,14.70
2018-02-14T03:11:57.311Z,15.47
2018-02-14T03:14:24.794Z,14.13
2018-02-14T03:16:52.258Z,13.63
2018-02-14T03:19:19.762Z,14.77
2018-02-14T03:21:47.982Z,15.13
2018-02-14T03:24:15.454Z,14.10
2018-02-14T03:26:42.934Z,14.90
2018-02-14T03:29:10.400Z,14.27
2018-02-14T03:31:38.663Z,14.07
2018-02-14T03:34:06.128Z,14.43
2018-02-14T03:36:33.582Z,14.67
2018-02-14T03:39:01.070Z,15.33
2018-02-14T03:41:28.529Z,14.00
2018-02-14T03:43:56.043Z,14.77
2018-02-14T03:46:23.502Z,14.60
2018-02-14T03:48:51.762Z,14.63
2018-02-14T03:51:19.223Z,15.23
2018-02-14T03:53:46.716Z,14.73
2018-02-14T03:56:14.179Z,13.63
2018-02-14T03:58:41.677Z,14.00
2018-02-14T04:01:09.182Z,13.73
2018-02-14T04:03:36.647Z,14.27
2018-02-14T04:06:04.125Z,14.40
2018-02-14T04:08:32.358Z,14.67
2018-02-14T04:10:59.858Z,13.43
2018-02-14T04:13:28.106Z,14.23
2018-02-14T04:15:55.593Z,14.00
2018-02-14T04:18:23.066Z,14.73
2018-02-14T04:20:50.537Z,15.50
2018-02-14T04:23:18.018Z,15.03
2018-02-14T04:25:45.519Z,14.73
2018-02-14T04:28:12.971Z,14.40
2018-02-14T04:30:40.458Z,14.13
2018-02-14T04:33:07.923Z,13.87
2018-02-14T04:35:35.401Z,14.20
2018-02-14T04:38:02.866Z,13.80
2018-02-14T04:40:30.363Z,14.73
2018-02-14T04:42:57.869Z,14.00
2018-02-14T04:45:25.329Z,13.03
2018-02-14T04:47:52.814Z,13.13
2018-02-14T04:50:20.298Z,13.93
2018-02-14T04:52:47.787Z,13.77
2018-02-14T04:55:15.251Z,13.47
2018-02-14T04:57:42.750Z,14.63
2018-02-14T05:00:10.210Z,13.70
2018-02-14T05:02:37.674Z,14.20
2018-02-14T05:05:05.158Z,15.37
2018-02-14T05:07:33.389Z,14.20
2018-02-14T05:10:00.867Z,13.17
2018-02-14T05:12:28.335Z,13.70
2018-02-14T05:14:55.826Z,13.93
2018-02-14T05:17:23.318Z,14.70
2018-02-14T05:19:50.782Z,15.17
2018-02-14T05:22:18.267Z,14.47
2018-02-14T05:24:45.738Z,13.33
2018-02-14T05:27:13.227Z,14.37
2018-02-14T05:29:40.691Z,13.77
2018-02-14T05:32:08.175Z,14.80
2018-02-14T05:34:35.650Z,13.93
2018-02-14T05:37:03.122Z,13.87
2018-02-14T05:39:30.583Z,13.90
2018-02-14T05:41:58.070Z,14.97
2018-02-14T05:44:25.526Z,15.13
2018-02-14T05:46:53.050Z,14.33
2018-02-14T05:49:20.519Z,15.10
2018-02-14T05:51:47.998Z,14.13
2018-02-14T05:54:15.470Z,14.97
2018-02-14T05:56:42.958Z,15.87
2018-02-14T05:59:10.431Z,14.63
2018-02-14T06:01:37.886Z,15.13
2018-02-14T06:04:05.370Z,14.60
2018-02-14T06:06:32.835Z,16.63
2018-02-14T06:09:01.099Z,16.13
2018-02-14T06:11:28.554Z,14.73
2018-02-14T06:13:56.067Z,15.03
2018-02-14T06:16:23.551Z,15.73
2018-02-14T06:18:51.015Z,15.37
2018-02-14T06:21:18.570Z,15.03
2018-02-14T06:23:46.094Z,14.40
2018-02-14T06:26:13.583Z,15.87
2018-02-14T06:28:41.049Z,16.80
2018-02-14T06:31:08.527Z,16.20
2018-02-14T06:33:35.990Z,15.83
2018-02-14T06:36:03.492Z,16.47
2018-02-14T06:38:30.971Z,17.47
2018-02-14T06:40:59.243Z,15.63
2018-02-14T06:43:26.722Z,16.43
2018-02-14T06:45:54.214Z,16.67
2018-02-14T06:48:21.682Z,16.23
2018-02-14T06:50:49.151Z,15.13
2018-02-14T06:53:16.657Z,15.70
2018-02-14T06:55:44.158Z,16.10
2018-02-14T06:58:12.401Z,16.80
2018-02-14T07:00:39.907Z,16.30
2018-02-14T07:03:08.127Z,16.43
2018-02-14T07:05:35.615Z,17.47
2018-02-14T07:08:03.100Z,16.80
2018-02-14T07:10:30.592Z,16.00
2018-02-14T07:12:58.179Z,17.00
2018-02-14T07:15:25.638Z,16.37
2018-02-14T07:17:53.126Z,17.33
2018-02-14T07:20:20.594Z,16.50
2018-02-14T07:22:48.086Z,15.70
2018-02-14T07:25:15.564Z,17.67
2018-02-14T07:27:43.019Z,17.03
2018-02-14T07:30:10.518Z,18.47
2018-02-14T07:32:37.979Z,17.87
2018-02-14T07:35:05.477Z,18.33
2018-02-14T07:37:32.940Z,19.20
2018-02-14T07:40:00.418Z,17.90
2018-02-14T07:42:27.906Z,17.83
2018-02-14T07:44:55.369Z,21.77
2018-02-14T07:47:22.859Z,18.43
2018-02-14T07:49:50.352Z,18.33
2018-02-14T07:52:17.831Z,18.00
2018-02-14T07:54:45.310Z,18.13
2018-02-14T07:57:12.789Z,17.90
2018-02-14T07:59:40.244Z,17.63
2018-02-14T08:02:07.737Z,17.87
2018-02-14T08:04:35.186Z,17.43
2018-02-14T08:07:02.670Z,17.93
2018-02-14T08:09:30.158Z,18.73
2018-02-14T08:11:57.648Z,18.80
2018-02-14T08:14:25.127Z,19.03
2018-02-14T08:16:52.595Z,18.97
2018-02-14T08:19:20.083Z,19.53
2018-02-14T08:21:48.338Z,21.63
2018-02-14T08:24:15.819Z,21.73
2018-02-14T08:26:43.278Z,21.83
2018-02-14T08:29:11.534Z,20.27
2018-02-14T08:31:38.995Z,23.10
2018-02-14T08:34:06.467Z,22.60
2018-02-14T08:36:33.951Z,24.17
2018-02-14T08:39:01.419Z,21.90
2018-02-14T08:41:29.004Z,23.87
2018-02-14T08:43:56.471Z,22.10
2018-02-14T08:46:23.934Z,23.13
2018-02-14T08:48:51.424Z,23.07
2018-02-14T08:51:19.671Z,22.83
2018-02-14T08:53:47.175Z,22.77
2018-02-14T08:56:14.665Z,22.27
2018-02-14T08:58:42.126Z,22.37
2018-02-14T09:01:09.619Z,21.70
2018-02-14T09:03:37.087Z,22.30
2018-02-14T09:06:04.591Z,20.97
2018-02-14T09:08:32.083Z,22.43
2018-02-14T09:10:59.534Z,21.73
2018-02-14T09:13:27.022Z,19.87
2018-02-14T09:15:55.270Z,18.13
2018-02-14T09:18:22.750Z,19.03
2018-02-14T09:20:50.239Z,19.80
2018-02-14T09:23:17.693Z,20.57
2018-02-14T09:25:45.181Z,19.50
2018-02-14T09:28:12.637Z,15.50
2018-02-14T09:30:40.130Z,16.60
2018-02-14T09:33:07.589Z,18.20
2018-02-14T09:35:35.059Z,17.47
2018-02-14T09:38:02.542Z,16.40
2018-02-14T09:40:29.996Z,14.13
2018-02-14T09:43:00.987Z,16.47
2018-02-14T09:45:28.458Z,14.03
2018-02-14T09:47:55.964Z,15.80
2018-02-14T09:50:23.418Z,15.17
2018-02-14T09:52:50.899Z,13.57
2018-02-14T09:55:18.360Z,14.43
2018-02-14T09:57:45.841Z,14.80
2018-02-14T10:00:13.309Z,14.37
2018-02-14T10:02:40.754Z,13.47
2018-02-14T10:05:08.246Z,12.27
2018-02-14T10:07:35.703Z,12.47
2018-02-14T10:10:03.961Z,11.33
2018-02-14T10:12:31.439Z,13.93
2018-02-14T10:14:58.926Z,13.47
2018-02-14T10:17:26.383Z,12.57
2018-02-14T10:19:53.843Z,11.23
2018-02-14T10:22:21.323Z,13.60
2018-02-14T10:24:48.820Z,11.17
2018-02-14T10:27:16.291Z,11.50
2018-02-14T10:29:43.747Z,12.07
2018-02-14T10:32:11.231Z,11.90
2018-02-14T10:34:38.715Z,9.30
2018-02-14T10:37:06.184Z,10.47
2018-02-14T10:39:33.637Z,11.63
2018-02-14T10:42:01.119Z,11.00
2018-02-14T10:44:28.590Z,9.97
2018-02-14T10:46:56.082Z,9.33
2018-02-14T10:49:23.611Z,9.80
2018-02-14T10:51:51.012Z,11.47
2018-02-14T10:54:18.494Z,9.77
2018-02-14T10:56:45.976Z,10.47
2018-02-14T10:59:13.454Z,10.10
2018-02-14T11:01:47.390Z,9.13
2018-02-14T11:04:20.445Z,10.63
2018-02-14T11:06:47.918Z,10.40
2018-02-14T11:09:15.370Z,9.30
2018-02-14T11:11:43.629Z,10.37
2018-02-14T11:14:11.086Z,10.60
2018-02-14T11:16:38.547Z,9.13
2018-02-14T11:19:06.027Z,9.37
2018-02-14T11:21:33.495Z,9.90
2018-02-14T11:24:00.954Z,10.20
2018-02-14T11:26:28.439Z,8.87
2018-02-14T11:28:55.898Z,10.20
2018-02-14T11:31:23.394Z,9.30
2018-02-14T11:33:50.850Z,9.80
2018-02-14T11:36:18.334Z,9.33
2018-02-14T11:38:46.619Z,9.53
2018-02-14T11:41:14.854Z,9.47
2018-02-14T11:43:42.315Z,9.50
2018-02-14T11:46:09.789Z,9.23
2018-02-14T11:48:37.396Z,8.80
2018-02-14T11:51:04.904Z,9.27
2018-02-14T11:53:32.361Z,9.77
2018-02-14T11:55:59.818Z,9.57
2018-02-14T11:58:27.299Z,9.30
2018-02-14T12:00:55.522Z,8.83
2018-02-14T12:03:23.015Z,9.60
2018-02-14T12:05:50.466Z,8.97
2018-02-14T12:08:17.964Z,9.13
2018-02-14T12:10:45.419Z,9.03
2018-02-14T12:13:12.906Z,9.70
2018-02-14T12:15:40.362Z,9.23
2018-02-14T12:18:07.827Z,9.60
2018-02-14T12:20:36.098Z,11.10
2018-02-14T12:23:03.563Z,10.87
2018-02-14T12:25:31.042Z,10.00
2018-02-14T12:27:58.503Z,10.50
2018-02-14T12:30:26.029Z,10.57
2018-02-14T12:32:54.215Z,10.27
2018-02-14T12:35:21.724Z,10.30
2018-02-14T12:37:49.950Z,12.53
2018-02-14T12:40:17.448Z,10.80
2018-02-14T12:42:44.910Z,10.03
2018-02-14T12:45:12.403Z,11.37
2018-02-14T12:47:39.890Z,8.67
2018-02-14T12:50:07.394Z,9.30
2018-02-14T12:52:35.726Z,8.80
2018-02-14T12:55:03.203Z,9.43
2018-02-14T12:57:30.656Z,9.20
2018-02-14T12:59:58.127Z,8.33
2018-02-14T13:02:25.602Z,7.80
2018-02-14T13:04:53.060Z,8.43
2018-02-14T13:07:20.510Z,9.37
2018-02-14T13:09:47.992Z,9.30
2018-02-14T13:12:15.446Z,9.97
2018-02-14T13:14:42.934Z,9.30
2018-02-14T13:17:10.426Z,9.23
2018-02-14T13:19:37.884Z,9.53
2018-02-14T13:22:05.378Z,10.03
2018-02-14T13:24:33.598Z,10.13
2018-02-14T13:27:01.080Z,9.80
2018-02-14T13:29:28.530Z,9.40
2018-02-14T13:31:56.051Z,10.10
2018-02-14T13:34:23.511Z,9.70
2018-02-14T13:36:50.969Z,10.77
2018-02-14T13:39:18.550Z,9.97
2018-02-14T13:41:46.013Z,10.43
2018-02-14T13:44:13.469Z,10.33
2018-02-14T13:46:40.958Z,10.27
2018-02-14T13:49:08.426Z,10.80
2018-02-14T13:51:35.883Z,10.60
2018-02-14T13:54:03.371Z,10.93
2018-02-14T13:56:31.583Z,10.60
2018-02-14T13:58:59.043Z,10.27
2018-02-14T14:01:26.531Z,12.13
2018-02-14T14:03:54.009Z,11.40
2018-02-14T14:06:22.246Z,11.73
2018-02-14T14:08:49.703Z,10.87
2018-02-14T14:11:17.182Z,12.60
2018-02-14T14:13:44.643Z,11.70
2018-02-14T14:16:12.127Z,12.13
2018-02-14T14:18:40.356Z,12.13
2018-02-14T14:21:07.838Z,13.30
2018-02-14T14:23:35.302Z,12.73
2018-02-14T14:26:02.783Z,13.07
2018-02-14T14:28:30.239Z,13.60
2018-02-14T14:30:57.750Z,13.57
2018-02-14T14:33:25.255Z,14.40
2018-02-14T14:35:53.477Z,12.70
2018-02-14T14:38:20.951Z,13.73
2018-02-14T14:40:48.434Z,14.50
2018-02-14T14:43:15.938Z,13.50
2018-02-14T14:45:43.398Z,14.57
2018-02-14T14:48:10.887Z,16.70
2018-02-14T14:50:38.338Z,15.07
2018-02-14T14:53:05.814Z,15.00
2018-02-14T14:55:33.298Z,15.43
2018-02-14T14:58:01.523Z,14.70
2018-02-14T15:00:29.011Z,14.83
2018-02-14T15:02:56.531Z,13.40
2018-02-14T15:05:24.764Z,14.23
2018-02-14T15:07:53.007Z,15.30
2018-02-14T15:10:20.498Z,14.13
2018-02-14T15:12:48.751Z,14.47
2018-02-14T15:15:16.243Z,13.23
2018-02-14T15:17:44.475Z,13.83
2018-02-14T15:20:11.983Z,14.13
2018-02-14T15:22:39.458Z,14.43
2018-02-14T15:25:06.941Z,13.80
2018-02-14T15:27:34.411Z,14.27
2018-02-14T15:30:01.870Z,14.60
2018-02-14T15:32:29.350Z,14.83
2018-02-14T15:34:56.831Z,14.30
2018-02-14T15:37:24.309Z,14.17
2018-02-14T15:39:51.789Z,15.37
2018-02-14T15:42:19.243Z,15.00
2018-02-14T15:44:46.750Z,15.43
2018-02-14T15:47:14.979Z,13.80
2018-02-14T15:49:42.425Z,14.13
2018-02-14T15:52:09.926Z,14.43
2018-02-14T15:54:37.385Z,14.53
2018-02-14T15:57:04.837Z,15.87
2018-02-14T15:59:32.328Z,14.07
2018-02-14T16:02:00.737Z,14.20
2018-02-14T16:04:28.214Z,14.53
2018-02-14T16:06:55.714Z,15.50
2018-02-14T16:09:23.151Z,15.50
2018-02-14T16:11:50.633Z,15.00
2018-02-14T16:14:18.874Z,16.17
2018-02-14T16:16:46.335Z,16.10
2018-02-14T16:19:13.817Z,17.97
2018-02-14T16:21:41.275Z,17.50
2018-02-14T16:24:08.750Z,17.13
2018-02-14T16:26:36.984Z,17.47
2018-02-14T16:29:04.473Z,18.27
2018-02-14T16:31:31.943Z,16.13
2018-02-14T16:33:59.424Z,17.60
2018-02-14T16:36:26.933Z,18.20
2018-02-14T16:38:54.375Z,17.23
2018-02-14T16:41:21.834Z,16.93
2018-02-14T16:43:49.311Z,17.70
2018-02-14T16:46:16.770Z,17.57
2018-02-14T16:48:44.279Z,16.97
2018-02-14T16:51:12.576Z,17.17
2018-02-14T16:53:40.071Z,17.07
2018-02-14T16:56:07.588Z,18.03
2018-02-14T16:58:35.122Z,16.30
2018-02-14T17:01:02.746Z,16.43
2018-02-14T17:03:32.010Z,17.83
2018-02-14T17:05:59.620Z,17.63
2018-02-14T17:08:27.109Z,17.07
2018-02-14T17:10:54.676Z,17.87
2018-02-14T17:13:22.115Z,18.00
2018-02-14T17:15:50.344Z,17.20
2018-02-14T17:18:18.123Z,18.63
2018-02-14T17:20:45.610Z,17.80
2018-02-14T17:23:13.106Z,16.93
2018-02-14T17:25:40.598Z,17.80
2018-02-14T17:28:08.219Z,17.57
2018-02-14T17:30:35.690Z,17.50
2018-02-14T17:33:03.154Z,18.60
2018-02-14T17:35:30.640Z,20.17
2018-02-14T17:37:58.143Z,18.50
2018-02-14T17:40:25.714Z,26.77
2018-02-14T17:42:53.194Z,23.73
2018-02-14T17:45:20.710Z,21.40
2018-02-14T17:50:22.767Z,18.47
2018-02-14T17:52:50.231Z,19.50
2018-02-14T17:55:17.692Z,19.53
2018-02-14T17:57:45.175Z,18.50
2018-02-14T18:00:12.638Z,18.47
2018-02-14T18:02:40.168Z,19.23
2018-02-14T18:05:14.435Z,19.47
2018-02-14T18:07:41.938Z,18.87
2018-02-14T18:10:09.419Z,19.53
2018-02-14T18:12:37.650Z,18.93
2018-02-14T18:15:05.149Z,19.70
2018-02-14T18:17:33.366Z,19.93
2018-02-14T18:20:00.853Z,18.80
2018-02-14T18:22:28.311Z,19.67
2018-02-14T18:24:55.799Z,20.13
2018-02-14T18:27:24.039Z,20.10
2018-02-14T18:29:51.530Z,18.83
2018-02-14T18:32:19.762Z,19.83
2018-02-14T18:34:47.228Z,19.67
2018-02-14T18:37:14.714Z,19.10
2018-02-14T18:39:42.226Z,19.50
2018-02-14T18:42:09.694Z,18.77
2018-02-14T18:44:37.163Z,19.90
2018-02-14T18:47:04.647Z,19.63
2018-02-14T18:49:32.131Z,19.13
2018-02-14T18:51:59.595Z,19.33
2018-02-14T18:54:27.099Z,20.13
2018-02-14T18:56:54.554Z,20.00
2018-02-14T18:59:22.055Z,19.63
2018-02-14T19:01:50.278Z,21.27
2018-02-14T19:04:18.091Z,20.93
2018-02-14T19:06:45.550Z,21.33
2018-02-14T19:09:13.030Z,20.73
2018-02-14T19:11:40.514Z,20.73
2018-02-14T19:14:07.987Z,21.00
2018-02-14T19:16:35.483Z,20.10
2018-02-14T19:19:02.944Z,20.20
2018-02-14T19:21:30.449Z,19.77
2018-02-14T19:23:57.917Z,19.77
2018-02-14T19:26:25.371Z,19.53
2018-02-14T19:28:52.851Z,19.80
2018-02-14T19:31:20.321Z,19.97
2018-02-14T19:33:47.807Z,19.07
2018-02-14T19:36:15.291Z,19.37
2018-02-14T19:38:42.759Z,21.13
2018-02-14T19:41:10.234Z,22.93
2018-02-14T19:43:37.710Z,22.03
2018-02-14T19:46:05.167Z,21.43
2018-02-14T19:48:32.646Z,20.20
2018-02-14T19:51:00.870Z,21.10
2018-02-14T19:53:28.354Z,22.27
2018-02-14T19:55:55.857Z,20.50
2018-02-14T19:58:24.080Z,20.67
2018-02-14T20:00:51.566Z,23.07
2018-02-14T20:03:19.171Z,21.43
2018-02-14T20:05:46.677Z,21.27
2018-02-14T20:08:14.137Z,21.47
2018-02-14T20:10:41.603Z,20.67
2018-02-14T20:13:09.082Z,20.37
2018-02-14T20:15:37.302Z,21.93
2018-02-14T20:18:06.064Z,20.07
2018-02-14T20:20:33.552Z,21.30
2018-02-14T20:23:01.046Z,20.07
2018-02-14T20:25:28.517Z,21.13
2018-02-14T20:27:55.995Z,20.17
2018-02-14T20:30:23.487Z,20.13
2018-02-14T20:32:50.951Z,21.20
2018-02-14T20:35:18.425Z,23.13
2018-02-14T20:37:45.883Z,22.10
2018-02-14T20:40:13.366Z,20.87
2018-02-14T20:42:41.592Z,20.10
2018-02-14T20:45:09.111Z,20.00
2018-02-14T20:47:36.579Z,20.70
2018-02-14T20:50:04.055Z,20.37
2018-02-14T20:52:31.554Z,19.53
2018-02-14T20:54:59.054Z,20.63
2018-02-14T20:57:26.552Z,19.97
2018-02-14T20:59:54.016Z,20.40
2018-02-14T21:02:21.499Z,21.13
2018-02-14T21:04:48.958Z,21.63
2018-02-14T21:07:16.443Z,20.70
2018-02-14T21:09:43.949Z,20.23
2018-02-14T21:12:11.417Z,20.23
2018-02-14T21:14:38.880Z,21.27
2018-02-14T21:17:06.358Z,20.73
2018-02-14T21:19:34.623Z,21.27
2018-02-14T21:22:02.079Z,20.63
2018-02-14T21:24:29.543Z,19.93
2018-02-14T21:26:57.044Z,19.13
2018-02-14T21:29:24.502Z,20.87
2018-02-14T21:31:51.972Z,20.03
2018-02-14T21:34:19.452Z,20.33
2018-02-14T21:36:46.938Z,21.03
2018-02-14T21:39:14.398Z,20.40
2018-02-14T21:41:41.886Z,20.87
2018-02-14T21:44:09.410Z,19.83
2018-02-14T21:46:36.867Z,19.97
2018-02-14T21:49:04.350Z,20.57
2018-02-14T21:51:33.789Z,19.30
2018-02-14T21:54:01.281Z,19.90
2018-02-14T21:56:28.751Z,20.47
2018-02-14T21:58:56.240Z,18.83
2018-02-14T22:01:23.738Z,19.73
2018-02-14T22:03:51.231Z,21.33
2018-02-14T22:06:18.695Z,19.97
2018-02-14T22:08:46.918Z,19.80
2018-02-14T22:11:14.402Z,19.93
2018-02-14T22:13:41.866Z,19.73
2018-02-14T22:16:09.355Z,19.20
2018-02-14T22:18:37.593Z,18.47
2018-02-14T22:21:05.099Z,18.63
2018-02-14T22:23:32.558Z,18.63
2018-02-14T22:26:00.019Z,18.77
2018-02-14T22:28:27.494Z,19.73
2018-02-14T22:30:54.955Z,18.27
2018-02-14T22:33:23.205Z,19.57
2018-02-14T22:35:50.662Z,20.07
2018-02-14T22:38:18.914Z,19.20
2018-02-14T22:40:46.399Z,19.63
2018-02-14T22:43:13.872Z,19.87
2018-02-14T22:45:41.336Z,18.53
2018-02-14T22:48:08.824Z,18.90
2018-02-14T22:50:36.279Z,18.53
2018-02-14T22:53:03.774Z,18.97
2018-02-14T22:55:31.238Z,18.93
2018-02-14T22:57:59.479Z,19.70
2018-02-14T23:00:28.754Z,19.50
2018-02-14T23:02:56.214Z,20.07
2018-02-14T23:05:23.694Z,19.63
2018-02-14T23:07:51.151Z,18.87
2018-02-14T23:10:18.639Z,18.80
2018-02-14T23:12:46.102Z,18.17
2018-02-14T23:15:13.583Z,19.10
2018-02-14T23:17:41.042Z,18.00
2018-02-14T23:20:08.523Z,19.07
2018-02-14T23:22:36.007Z,17.70
2018-02-14T23:25:03.502Z,18.93
2018-02-14T23:27:31.764Z,18.47
2018-02-14T23:29:59.223Z,17.90
2018-02-14T23:32:26.703Z,16.70
2018-02-14T23:34:54.162Z,17.43
2018-02-14T23:37:21.651Z,18.43
2018-02-14T23:39:49.106Z,17.23
2018-02-14T23:42:16.674Z,17.17
2018-02-14T23:44:44.131Z,16.33
2018-02-14T23:47:11.583Z,16.13
2018-02-14T23:49:39.062Z,15.97
2018-02-14T23:52:06.519Z,16.23
2018-02-14T23:54:34.006Z,15.70
2018-02-14T23:57:01.463Z,15.03
2018-02-14T23:59:28.914Z,14.67
